createdAt,value
2023-03-18T00:01:16.762Z,116.97
2023-03-18T00:03:43.987Z,116.27
2023-03-18T00:06:18.365Z,116.97
2023-03-18T00:08:48.266Z,116.77
2023-03-18T00:11:19.873Z,116.50
2023-03-18T00:13:48.992Z,116.60
2023-03-18T00:16:16.707Z,117.17
2023-03-18T00:18:44.515Z,116.53
2023-03-18T00:21:12.336Z,114.27
2023-03-18T00:23:40.088Z,116.73
2023-03-18T00:26:08.846Z,116.70
2023-03-18T00:28:37.291Z,115.40
2023-03-18T00:31:10.963Z,115.30
2023-03-18T00:33:40.675Z,116.87
2023-03-18T00:36:13.631Z,116.20
2023-03-18T00:38:46.821Z,116.67
2023-03-18T00:41:15.839Z,116.60
2023-03-18T00:43:52.059Z,116.60
2023-03-18T00:46:26.207Z,116.37
2023-03-18T00:48:59.802Z,116.60
2023-03-18T00:51:34.951Z,115.17
2023-03-18T00:54:08.023Z,116.20
2023-03-18T00:56:39.916Z,116.30
2023-03-18T00:59:08.718Z,116.50
2023-03-18T01:01:37.138Z,116.10
2023-03-18T01:04:04.382Z,116.10
2023-03-18T01:06:35.029Z,116.50
2023-03-18T01:09:05.101Z,116.13
2023-03-18T01:11:33.272Z,116.60
2023-03-18T01:14:01.131Z,115.77
2023-03-18T01:16:29.670Z,116.43
2023-03-18T01:18:57.344Z,115.90
2023-03-18T01:21:25.423Z,116.30
2023-03-18T01:23:56.652Z,115.70
2023-03-18T01:26:26.000Z,116.27
2023-03-18T01:28:54.681Z,114.10
2023-03-18T01:31:21.888Z,115.93
2023-03-18T01:33:48.974Z,115.80
2023-03-18T01:36:17.474Z,116.00
2023-03-18T01:38:49.276Z,115.50
2023-03-18T01:41:17.354Z,114.87
2023-03-18T01:43:44.931Z,115.90
2023-03-18T01:46:42.719Z,115.80
2023-03-18T01:49:17.458Z,115.87
2023-03-18T01:51:54.048Z,114.87
2023-03-18T01:54:24.674Z,115.90
2023-03-18T01:56:53.811Z,114.87
2023-03-18T01:59:26.339Z,114.70
2023-03-18T02:02:03.304Z,115.60
2023-03-18T02:04:51.341Z,115.20
2023-03-18T02:07:26.245Z,115.60
2023-03-18T02:09:59.147Z,116.27
2023-03-18T02:12:34.384Z,114.67
2023-03-18T02:15:10.367Z,116.00
2023-03-18T02:17:46.757Z,115.77
2023-03-18T02:20:48.816Z,115.77
2023-03-18T02:24:19.225Z,114.27
2023-03-18T02:27:27.881Z,115.20
2023-03-18T02:30:07.053Z,115.30
2023-03-18T02:32:41.256Z,115.07
2023-03-18T02:35:12.063Z,115.33
2023-03-18T02:37:40.696Z,114.40
2023-03-18T02:40:28.965Z,115.97
2023-03-18T02:42:57.289Z,115.97
2023-03-18T02:45:45.873Z,114.50
2023-03-18T02:48:21.339Z,115.80
2023-03-18T02:50:50.128Z,115.50
2023-03-18T02:53:17.433Z,114.90
2023-03-18T02:55:45.457Z,115.87
2023-03-18T02:58:13.033Z,116.00
2023-03-18T03:00:41.320Z,114.80
2023-03-18T03:03:08.433Z,114.40
2023-03-18T03:05:35.991Z,116.47
2023-03-18T03:08:03.078Z,115.10
2023-03-18T03:10:33.679Z,116.07
2023-03-18T03:13:01.524Z,115.90
2023-03-18T03:15:30.358Z,116.07
2023-03-18T03:17:59.901Z,115.60
2023-03-18T03:20:27.420Z,115.20
2023-03-18T03:22:55.057Z,115.40
2023-03-18T03:25:22.525Z,115.77
2023-03-18T03:27:50.169Z,114.67
2023-03-18T03:30:18.477Z,115.80
2023-03-18T03:32:46.490Z,115.50
2023-03-18T03:35:20.981Z,116.07
2023-03-18T03:37:48.221Z,115.37
2023-03-18T03:40:20.444Z,114.47
2023-03-18T03:42:48.944Z,115.70
2023-03-18T03:45:19.072Z,115.87
2023-03-18T03:47:47.648Z,115.60
2023-03-18T03:50:17.822Z,115.17
2023-03-18T03:52:45.986Z,116.07
2023-03-18T03:55:18.137Z,115.90
2023-03-18T03:57:46.461Z,115.13
2023-03-18T04:00:20.510Z,115.77
2023-03-18T04:02:51.905Z,115.93
2023-03-18T04:05:24.397Z,115.73
2023-03-18T04:07:53.007Z,116.07
2023-03-18T04:10:28.658Z,115.60
2023-03-18T04:12:56.119Z,116.10
2023-03-18T04:15:23.556Z,115.40
2023-03-18T04:17:54.561Z,116.33
2023-03-18T04:20:22.429Z,115.10
2023-03-18T04:22:50.184Z,115.57
2023-03-18T04:25:19.935Z,115.57
2023-03-18T04:27:55.019Z,115.87
2023-03-18T04:30:23.348Z,115.67
2023-03-18T04:33:03.590Z,115.87
2023-03-18T04:35:32.157Z,115.57
2023-03-18T04:37:59.812Z,115.20
2023-03-18T04:40:28.544Z,114.90
2023-03-18T04:42:56.436Z,115.23
2023-03-18T04:45:26.062Z,115.80
2023-03-18T04:47:56.993Z,115.57
2023-03-18T04:50:27.764Z,115.97
2023-03-18T04:52:55.021Z,115.03
2023-03-18T04:55:26.580Z,115.80
2023-03-18T04:57:54.455Z,114.20
2023-03-18T05:00:24.265Z,115.37
2023-03-18T05:02:58.429Z,115.13
2023-03-18T05:05:27.086Z,115.00
2023-03-18T05:07:54.903Z,115.57
2023-03-18T05:10:23.084Z,114.23
2023-03-18T05:12:51.654Z,114.67
2023-03-18T05:15:27.658Z,115.20
2023-03-18T05:17:58.480Z,115.57
2023-03-18T05:20:26.433Z,115.77
2023-03-18T05:22:54.496Z,115.30
2023-03-18T05:25:49.816Z,115.47
2023-03-18T05:28:18.728Z,114.17
2023-03-18T05:31:03.544Z,115.67
2023-03-18T05:33:33.635Z,115.20
2023-03-18T05:36:01.733Z,115.67
2023-03-18T05:38:34.896Z,115.00
2023-03-18T05:41:03.401Z,115.57
2023-03-18T05:43:38.503Z,114.07
2023-03-18T05:46:06.196Z,115.10
2023-03-18T05:48:47.252Z,114.87
2023-03-18T05:51:15.342Z,115.17
2023-03-18T05:53:42.865Z,114.70
2023-03-18T05:56:22.363Z,115.37
2023-03-18T05:58:53.120Z,115.10
2023-03-18T06:01:30.719Z,114.87
2023-03-18T06:03:59.959Z,115.63
2023-03-18T06:06:27.634Z,114.50
2023-03-18T06:08:56.167Z,115.07
2023-03-18T06:11:24.692Z,115.20
2023-03-18T06:13:54.352Z,115.17
2023-03-18T06:16:23.130Z,114.50
2023-03-18T06:18:53.523Z,115.77
2023-03-18T06:21:21.052Z,114.90
2023-03-18T06:23:49.539Z,114.93
2023-03-18T06:26:17.140Z,115.27
2023-03-18T06:28:47.991Z,114.13
2023-03-18T06:31:17.628Z,115.77
2023-03-18T06:33:45.212Z,115.00
2023-03-18T06:36:16.528Z,115.37
2023-03-18T06:38:47.736Z,115.60
2023-03-18T06:41:16.191Z,112.67
2023-03-18T06:43:58.392Z,115.37
2023-03-18T06:46:25.985Z,114.40
2023-03-18T06:48:54.414Z,114.50
2023-03-18T06:51:25.718Z,114.70
2023-03-18T06:53:54.512Z,115.17
2023-03-18T06:56:23.598Z,115.07
2023-03-18T06:59:00.668Z,115.27
2023-03-18T07:01:30.369Z,115.07
2023-03-18T07:04:00.495Z,115.17
2023-03-18T07:06:30.517Z,115.17
2023-03-18T07:08:59.434Z,115.30
2023-03-18T07:11:27.799Z,114.80
2023-03-18T07:13:56.288Z,114.90
2023-03-18T07:16:32.653Z,115.37
2023-03-18T07:19:00.228Z,115.53
2023-03-18T07:21:29.266Z,114.00
2023-03-18T07:23:56.863Z,112.87
2023-03-18T07:26:26.312Z,116.07
2023-03-18T07:28:53.818Z,114.87
2023-03-18T07:31:21.409Z,116.07
2023-03-18T07:33:48.867Z,115.43
2023-03-18T07:36:16.174Z,116.07
2023-03-18T07:38:43.755Z,115.87
2023-03-18T07:41:11.217Z,116.47
2023-03-18T07:43:39.967Z,116.07
2023-03-18T07:46:08.019Z,115.80
2023-03-18T07:48:35.539Z,115.40
2023-03-18T07:51:03.408Z,116.00
2023-03-18T07:53:30.853Z,116.10
2023-03-18T07:55:58.323Z,115.80
2023-03-18T07:58:25.850Z,116.50
2023-03-18T08:00:53.955Z,116.87
2023-03-18T08:03:21.463Z,116.97
2023-03-18T08:05:49.711Z,115.60
2023-03-18T08:08:17.578Z,116.40
2023-03-18T08:10:45.021Z,115.80
2023-03-18T08:13:12.949Z,116.10
2023-03-18T08:15:40.987Z,116.33
2023-03-18T08:18:09.454Z,115.90
2023-03-18T08:20:38.137Z,114.97
2023-03-18T09:14:14.940Z,115.97
2023-03-18T09:16:42.364Z,115.87
2023-03-18T09:19:09.774Z,116.07
2023-03-18T09:21:37.563Z,115.57
2023-03-18T09:24:07.081Z,115.60
2023-03-18T09:26:34.938Z,115.90
2023-03-18T09:29:05.201Z,115.40
2023-03-18T09:31:33.075Z,115.70
2023-03-18T09:34:00.808Z,115.47
2023-03-18T09:36:28.445Z,115.27
2023-03-18T09:38:56.002Z,115.67
2023-03-18T09:41:54.672Z,115.50
2023-03-18T09:44:30.251Z,114.83
2023-03-18T09:47:16.277Z,115.33
2023-03-18T09:50:13.853Z,114.77
2023-03-18T09:52:54.276Z,114.57
2023-03-18T09:55:44.025Z,114.10
2023-03-18T09:58:46.321Z,115.57
2023-03-18T10:01:15.662Z,113.70
2023-03-18T10:03:54.672Z,114.03
2023-03-18T10:06:24.588Z,114.40
2023-03-18T10:09:01.151Z,114.47
2023-03-18T10:11:46.149Z,114.73
2023-03-18T10:14:42.230Z,114.80
2023-03-18T10:17:19.102Z,114.27
2023-03-18T10:20:00.338Z,113.67
2023-03-18T10:22:45.426Z,113.17
2023-03-18T10:25:35.972Z,113.07
2023-03-18T10:28:49.083Z,112.13
2023-03-18T10:31:53.215Z,110.70
2023-03-18T10:34:27.762Z,112.37
2023-03-18T10:37:39.064Z,112.47
2023-03-18T10:40:15.808Z,111.93
2023-03-18T10:42:44.100Z,111.00
2023-03-18T10:45:26.002Z,111.77
2023-03-18T10:48:08.808Z,110.40
2023-03-18T10:50:54.460Z,111.37
2023-03-18T10:53:34.679Z,111.17
2023-03-18T10:56:12.776Z,112.67
2023-03-18T10:58:42.303Z,111.57
2023-03-18T11:01:17.119Z,113.10
2023-03-18T11:03:50.532Z,112.23
2023-03-18T11:06:45.689Z,112.77
2023-03-18T11:09:20.415Z,112.07
2023-03-18T11:11:50.840Z,110.80
2023-03-18T11:14:28.794Z,111.70
2023-03-18T11:17:00.568Z,110.83
2023-03-18T11:19:41.276Z,111.77
2023-03-18T11:22:24.682Z,110.40
2023-03-18T11:25:11.419Z,110.77
2023-03-18T11:27:47.036Z,111.77
2023-03-18T11:30:34.360Z,109.77
2023-03-18T11:33:12.549Z,111.10
2023-03-18T11:36:02.458Z,110.57
2023-03-18T11:38:34.175Z,111.57
2023-03-18T11:41:11.639Z,110.10
2023-03-18T11:43:54.777Z,110.97
2023-03-18T11:46:24.453Z,108.90
2023-03-18T11:48:52.087Z,111.03
2023-03-18T11:51:32.362Z,111.07
2023-03-18T11:54:44.942Z,110.07
2023-03-18T11:57:32.228Z,111.10
2023-03-18T12:00:13.231Z,112.27
2023-03-18T12:03:18.886Z,111.57
2023-03-18T12:06:22.702Z,111.87
2023-03-18T12:09:19.255Z,111.67
2023-03-18T12:12:15.576Z,111.43
2023-03-18T12:15:23.175Z,112.07
2023-03-18T12:18:12.035Z,110.87
2023-03-18T12:20:53.268Z,110.40
2023-03-18T12:23:45.810Z,110.80
2023-03-18T12:26:55.508Z,110.70
2023-03-18T12:30:05.264Z,109.40
2023-03-18T12:32:49.764Z,110.90
2023-03-18T12:35:33.540Z,110.20
2023-03-18T12:38:35.652Z,109.87
2023-03-18T12:41:19.264Z,109.87
2023-03-18T12:44:04.577Z,109.10
2023-03-18T12:46:47.611Z,108.47
2023-03-18T12:49:24.299Z,108.47
2023-03-18T12:52:09.498Z,108.57
2023-03-18T12:54:45.678Z,108.17
2023-03-18T12:57:31.949Z,108.37
2023-03-18T13:00:10.306Z,109.07
2023-03-18T13:03:05.495Z,109.30
2023-03-18T13:05:52.336Z,108.73
2023-03-18T13:08:44.556Z,109.87
2023-03-18T13:11:34.163Z,109.57
2023-03-18T13:14:29.948Z,109.17
2023-03-18T13:17:00.226Z,109.17
2023-03-18T13:19:28.100Z,109.27
2023-03-18T13:22:53.320Z,108.93
2023-03-18T13:25:51.815Z,108.60
2023-03-18T13:29:21.527Z,108.97
2023-03-18T13:32:04.627Z,109.07
2023-03-18T13:35:10.417Z,108.87
2023-03-18T13:38:17.225Z,109.07
2023-03-18T13:41:32.143Z,109.47
2023-03-18T13:44:06.956Z,109.87
2023-03-18T13:46:35.122Z,110.77
2023-03-18T13:49:03.925Z,111.20
2023-03-18T13:51:31.973Z,111.27
2023-03-18T13:54:06.672Z,111.60
2023-03-18T13:56:49.092Z,112.17
2023-03-18T13:59:34.953Z,112.00
2023-03-18T14:02:39.702Z,112.57
2023-03-18T14:05:32.327Z,112.37
2023-03-18T14:08:05.782Z,113.10
2023-03-18T14:10:33.186Z,112.37
2023-03-18T14:13:34.720Z,112.47
2023-03-18T14:16:10.731Z,110.67
2023-03-18T14:18:38.628Z,111.80
2023-03-18T14:21:23.579Z,111.70
2023-03-18T14:24:15.997Z,111.57
2023-03-18T14:26:58.687Z,111.37
2023-03-18T14:29:31.037Z,111.47
2023-03-18T14:32:00.946Z,111.73
2023-03-18T14:34:33.570Z,111.90
2023-03-18T14:37:17.755Z,111.27
2023-03-18T14:39:47.912Z,112.10
2023-03-18T14:42:48.750Z,112.07
2023-03-18T14:45:37.372Z,111.57
2023-03-18T14:48:29.351Z,111.27
2023-03-18T14:51:02.577Z,109.87
2023-03-18T14:54:07.444Z,112.87
2023-03-18T14:56:54.306Z,113.80
2023-03-18T14:59:25.827Z,111.93
2023-03-18T15:01:55.321Z,113.63
2023-03-18T15:04:28.696Z,113.63
2023-03-18T15:07:05.365Z,116.07
2023-03-18T15:09:35.778Z,115.90
2023-03-18T15:12:19.230Z,116.20
2023-03-18T15:14:49.771Z,116.77
2023-03-18T15:17:17.629Z,116.90
2023-03-18T15:19:47.300Z,117.13
2023-03-18T15:22:26.140Z,116.87
2023-03-18T15:25:00.322Z,117.40
2023-03-18T15:27:35.821Z,117.30
2023-03-18T15:30:06.386Z,116.70
2023-03-18T15:33:14.885Z,117.20
2023-03-18T15:35:46.014Z,116.93
2023-03-18T15:38:21.858Z,116.80
2023-03-18T15:40:53.304Z,117.00
2023-03-18T15:43:44.900Z,117.07
2023-03-18T15:46:32.544Z,117.10
2023-03-18T15:49:05.327Z,117.77
2023-03-18T15:51:44.835Z,117.47
2023-03-18T15:54:27.633Z,117.50
2023-03-18T15:56:59.271Z,117.67
2023-03-18T15:59:32.555Z,117.70
2023-03-18T16:02:01.982Z,117.57
2023-03-18T16:04:35.325Z,117.23
2023-03-18T16:07:04.760Z,117.37
2023-03-18T16:09:34.694Z,117.20
2023-03-18T16:12:23.918Z,117.27
2023-03-18T16:14:54.466Z,117.03
2023-03-18T16:17:23.881Z,117.50
2023-03-18T16:19:55.037Z,117.10
2023-03-18T16:22:23.095Z,116.67
2023-03-18T16:24:50.490Z,117.47
2023-03-18T16:27:41.013Z,117.17
2023-03-18T16:30:22.466Z,117.93
2023-03-18T16:32:50.982Z,117.70
2023-03-18T16:35:24.405Z,117.67
2023-03-18T16:37:52.096Z,117.20
2023-03-18T16:40:27.030Z,117.40
2023-03-18T16:42:55.330Z,118.00
2023-03-18T16:45:30.390Z,117.93
2023-03-18T16:48:03.792Z,118.17
2023-03-18T16:50:37.672Z,118.37
2023-03-18T16:53:27.797Z,118.50
2023-03-18T16:56:16.528Z,118.40
2023-03-18T16:58:45.292Z,118.00
2023-03-18T17:01:16.926Z,118.33
2023-03-18T17:03:44.353Z,119.57
2023-03-18T17:06:13.159Z,118.77
2023-03-18T17:08:40.185Z,119.10
2023-03-18T17:11:07.982Z,118.37
2023-03-18T17:13:38.248Z,118.23
2023-03-18T17:16:06.035Z,118.57
2023-03-18T17:18:33.574Z,118.30
2023-03-18T17:21:03.250Z,118.53
2023-03-18T17:23:30.328Z,118.70
2023-03-18T17:26:00.459Z,118.00
2023-03-18T17:28:50.023Z,118.67
2023-03-18T17:31:17.404Z,118.97
2023-03-18T17:33:44.416Z,119.07
2023-03-18T17:36:12.329Z,119.07
2023-03-18T17:38:39.367Z,118.27
2023-03-18T17:41:19.457Z,119.10
2023-03-18T17:43:47.091Z,118.50
2023-03-18T17:46:14.604Z,119.37
2023-03-18T17:48:41.725Z,119.10
2023-03-18T17:51:19.363Z,118.93
2023-03-18T17:53:59.180Z,119.20
2023-03-18T17:56:27.733Z,119.00
2023-03-18T17:58:55.133Z,119.00
2023-03-18T18:01:29.923Z,119.10
2023-03-18T18:03:59.830Z,119.17
2023-03-18T18:06:29.774Z,118.33
2023-03-18T18:08:59.984Z,118.50
2023-03-18T18:11:48.869Z,118.70
2023-03-18T18:14:28.823Z,118.93
2023-03-18T18:16:56.940Z,118.80
2023-03-18T18:19:24.343Z,118.07
2023-03-18T18:21:52.915Z,118.50
2023-03-18T18:24:29.138Z,118.70
2023-03-18T18:26:56.800Z,118.10
2023-03-18T18:29:28.147Z,118.90
2023-03-18T18:31:55.660Z,118.60
2023-03-18T18:34:22.867Z,118.90
2023-03-18T18:36:50.945Z,118.63
2023-03-18T18:39:18.340Z,118.70
2023-03-18T18:41:46.457Z,118.73
2023-03-18T18:44:14.610Z,118.70
2023-03-18T18:46:42.176Z,118.57
2023-03-18T18:49:24.498Z,118.07
2023-03-18T18:51:54.984Z,118.70
2023-03-18T18:54:23.994Z,118.50
2023-03-18T18:56:52.088Z,118.53
2023-03-18T18:59:28.545Z,118.33
2023-03-18T19:01:56.747Z,119.10
2023-03-18T19:04:24.612Z,118.27
2023-03-18T19:06:52.714Z,118.57
2023-03-18T19:09:26.119Z,118.27
2023-03-18T19:11:56.072Z,118.30
2023-03-18T19:14:27.607Z,118.30
2023-03-18T19:17:03.405Z,118.50
2023-03-18T19:19:36.708Z,118.03
2023-03-18T19:22:04.334Z,118.17
2023-03-18T19:24:36.910Z,118.87
2023-03-18T19:27:23.776Z,118.63
2023-03-18T19:29:54.618Z,117.20
2023-03-18T19:32:24.137Z,118.40
2023-03-18T19:34:53.793Z,118.63
2023-03-18T19:37:29.111Z,118.37
2023-03-18T19:39:57.762Z,119.07
2023-03-18T19:42:25.895Z,118.50
2023-03-18T19:44:53.353Z,117.57
2023-03-18T19:47:28.451Z,118.30
2023-03-18T19:49:56.073Z,118.17
2023-03-18T19:52:25.431Z,118.50
2023-03-18T19:54:54.668Z,117.80
2023-03-18T19:57:28.850Z,118.30
2023-03-18T19:59:59.561Z,118.60
2023-03-18T20:02:34.713Z,118.20
2023-03-18T20:05:16.444Z,118.00
2023-03-18T20:07:43.517Z,118.40
2023-03-18T20:10:12.990Z,118.23
2023-03-18T20:12:47.107Z,117.07
2023-03-18T20:15:22.850Z,118.00
2023-03-18T20:17:52.741Z,119.07
2023-03-18T20:20:27.583Z,118.87
2023-03-18T20:23:02.640Z,117.80
2023-03-18T20:25:42.117Z,118.40
2023-03-18T20:28:23.242Z,118.20
2023-03-18T20:30:53.855Z,118.97
2023-03-18T20:33:22.503Z,117.87
2023-03-18T20:35:54.671Z,118.17
2023-03-18T20:38:39.618Z,118.13
2023-03-18T20:41:07.654Z,118.30
2023-03-18T20:43:35.274Z,117.50
2023-03-18T20:46:02.484Z,118.77
2023-03-18T20:48:30.306Z,118.10
2023-03-18T20:50:58.189Z,118.40
2023-03-18T20:53:28.857Z,116.60
2023-03-18T20:55:56.365Z,118.57
2023-03-18T20:58:27.486Z,117.77
2023-03-18T21:00:55.333Z,117.73
2023-03-18T21:03:35.181Z,118.10
2023-03-18T21:06:03.702Z,118.40
2023-03-18T21:08:32.937Z,117.27
2023-03-18T21:11:02.324Z,117.07
2023-03-18T21:13:38.767Z,118.00
2023-03-18T21:16:15.312Z,118.00
2023-03-18T21:18:45.703Z,118.40
2023-03-18T21:21:38.134Z,118.87
2023-03-18T21:24:27.487Z,117.47
2023-03-18T21:27:04.094Z,117.03
2023-03-18T21:29:31.541Z,118.37
2023-03-18T21:31:59.854Z,118.43
2023-03-18T21:34:27.629Z,118.10
2023-03-18T21:36:54.562Z,118.90
2023-03-18T21:39:22.345Z,117.77
2023-03-18T21:41:49.813Z,119.00
2023-03-18T21:44:17.274Z,118.97
2023-03-18T21:46:44.680Z,116.90
2023-03-18T21:49:12.238Z,119.07
2023-03-18T21:51:40.434Z,117.70
2023-03-18T21:54:18.919Z,118.07
2023-03-18T21:56:46.403Z,117.70
2023-03-18T21:59:16.432Z,118.77
2023-03-18T22:01:47.552Z,117.47
2023-03-18T22:04:14.730Z,118.13
2023-03-18T22:06:42.146Z,118.43
2023-03-18T22:09:09.683Z,118.47
2023-03-18T22:11:36.777Z,118.57
2023-03-18T22:14:03.796Z,118.20
2023-03-18T22:16:31.381Z,117.47
2023-03-18T22:18:58.417Z,117.27
2023-03-18T22:21:28.285Z,118.10
2023-03-18T22:23:58.080Z,116.20
2023-03-18T22:26:25.777Z,118.10
2023-03-18T22:28:53.195Z,117.60
2023-03-18T22:31:25.953Z,118.87
2023-03-18T22:33:54.072Z,118.13
2023-03-18T22:36:21.925Z,118.00
2023-03-18T22:38:49.751Z,118.77
2023-03-18T22:41:25.077Z,118.50
2023-03-18T22:43:53.224Z,118.23
2023-03-18T22:46:20.217Z,118.67
2023-03-18T22:48:47.293Z,117.70
2023-03-18T22:51:34.977Z,118.13
2023-03-18T22:54:02.499Z,117.47
2023-03-18T22:56:32.048Z,118.67
2023-03-18T22:58:59.561Z,118.30
2023-03-18T23:01:30.925Z,117.60
2023-03-18T23:03:58.742Z,117.07
2023-03-18T23:06:27.045Z,117.60
2023-03-18T23:08:54.124Z,118.47
2023-03-18T23:11:21.647Z,118.10
2023-03-18T23:13:50.553Z,117.93
2023-03-18T23:16:21.800Z,117.93
2023-03-18T23:18:50.806Z,117.73
2023-03-18T23:21:22.551Z,118.17
2023-03-18T23:23:50.444Z,118.00
2023-03-18T23:26:17.991Z,118.00
2023-03-18T23:28:45.930Z,116.53
2023-03-18T23:31:15.615Z,117.90
2023-03-18T23:33:43.473Z,117.90
2023-03-18T23:36:11.640Z,116.90
2023-03-18T23:38:39.243Z,117.50
2023-03-18T23:41:07.137Z,118.00
2023-03-18T23:43:34.677Z,115.87
2023-03-18T23:46:03.331Z,117.07
2023-03-18T23:48:31.283Z,117.83
2023-03-18T23:50:58.306Z,118.30
2023-03-18T23:53:26.069Z,118.17
2023-03-18T23:55:53.027Z,118.20
2023-03-18T23:58:20.178Z,118.00
